sensor_id;sensor_type;location;lat;lon;timestamp;P1;durP1;ratioP1;P2;durP2;ratioP2
295;SDS011;132;48.770;9.200;2022-10-31T00:00:24;11.20;;;4.87;;
295;SDS011;132;48.770;9.200;2022-10-31T00:02:50;14.13;;;4.83;;
295;SDS011;132;48.770;9.200;2022-10-31T00:05:17;8.00;;;4.50;;
295;SDS011;132;48.770;9.200;2022-10-31T00:07:43;11.83;;;4.80;;
295;SDS011;132;48.770;9.200;2022-10-31T00:10:09;10.33;;;5.23;;
295;SDS011;132;48.770;9.200;2022-10-31T00:12:36;7.30;;;4.63;;
295;SDS011;132;48.770;9.200;2022-10-31T00:15:02;10.83;;;5.27;;
295;SDS011;132;48.770;9.200;2022-10-31T00:17:29;10.53;;;5.33;;
295;SDS011;132;48.770;9.200;2022-10-31T00:19:55;9.77;;;4.60;;
295;SDS011;132;48.770;9.200;2022-10-31T00:22:22;9.90;;;5.00;;
295;SDS011;132;48.770;9.200;2022-10-31T00:24:48;12.17;;;5.60;;
295;SDS011;132;48.770;9.200;2022-10-31T00:27:15;11.20;;;4.90;;
295;SDS011;132;48.770;9.200;2022-10-31T00:29:41;9.97;;;5.20;;
295;SDS011;132;48.770;9.200;2022-10-31T00:32:07;11.53;;;5.00;;
295;SDS011;132;48.770;9.200;2022-10-31T00:34:34;12.37;;;5.40;;
295;SDS011;132;48.770;9.200;2022-10-31T00:37:00;8.30;;;5.07;;
295;SDS011;132;48.770;9.200;2022-10-31T00:39:26;11.07;;;5.20;;
295;SDS011;132;48.770;9.200;2022-10-31T00:41:53;9.20;;;5.30;;
295;SDS011;132;48.770;9.200;2022-10-31T00:44:19;13.47;;;4.90;;
295;SDS011;132;48.770;9.200;2022-10-31T00:46:46;9.73;;;5.50;;
295;SDS011;132;48.770;9.200;2022-10-31T00:49:12;12.00;;;5.70;;
295;SDS011;132;48.770;9.200;2022-10-31T00:51:38;16.03;;;5.63;;
295;SDS011;132;48.770;9.200;2022-10-31T00:54:05;9.53;;;4.73;;
295;SDS011;132;48.770;9.200;2022-10-31T00:56:31;12.60;;;5.07;;
295;SDS011;132;48.770;9.200;2022-10-31T00:58:59;6.90;;;4.33;;
295;SDS011;132;48.770;9.200;2022-10-31T01:01:25;12.60;;;5.30;;
295;SDS011;132;48.770;9.200;2022-10-31T01:03:51;15.77;;;5.70;;
295;SDS011;132;48.770;9.200;2022-10-31T01:06:18;7.13;;;4.73;;
295;SDS011;132;48.770;9.200;2022-10-31T01:08:45;9.77;;;4.60;;
295;SDS011;132;48.770;9.200;2022-10-31T01:11:17;9.90;;;4.90;;
295;SDS011;132;48.770;9.200;2022-10-31T01:13:45;10.50;;;4.93;;
295;SDS011;132;48.770;9.200;2022-10-31T01:16:14;14.40;;;4.80;;
295;SDS011;132;48.770;9.200;2022-10-31T01:18:42;13.33;;;5.40;;
295;SDS011;132;48.770;9.200;2022-10-31T01:21:10;10.47;;;4.90;;
295;SDS011;132;48.770;9.200;2022-10-31T01:23:39;9.07;;;4.67;;
295;SDS011;132;48.770;9.200;2022-10-31T01:26:13;8.37;;;5.07;;
295;SDS011;132;48.770;9.200;2022-10-31T01:28:59;10.53;;;5.53;;
295;SDS011;132;48.770;9.200;2022-10-31T01:31:29;9.53;;;5.03;;
295;SDS011;132;48.770;9.200;2022-10-31T01:33:58;11.47;;;5.20;;
295;SDS011;132;48.770;9.200;2022-10-31T01:36:26;12.50;;;5.10;;
295;SDS011;132;48.770;9.200;2022-10-31T01:39:08;14.50;;;5.20;;
295;SDS011;132;48.770;9.200;2022-10-31T01:41:40;9.97;;;4.90;;
295;SDS011;132;48.770;9.200;2022-10-31T01:51:58;11.60;;;5.27;;
295;SDS011;132;48.770;9.200;2022-10-31T01:54:32;12.23;;;5.57;;
295;SDS011;132;48.770;9.200;2022-10-31T01:57:02;15.07;;;5.37;;
295;SDS011;132;48.770;9.200;2022-10-31T01:59:30;12.93;;;6.13;;
295;SDS011;132;48.770;9.200;2022-10-31T02:02:00;8.43;;;5.20;;
295;SDS011;132;48.770;9.200;2022-10-31T02:04:27;7.80;;;4.80;;
295;SDS011;132;48.770;9.200;2022-10-31T02:06:56;11.73;;;5.70;;
295;SDS011;132;48.770;9.200;2022-10-31T02:09:26;15.80;;;5.10;;
295;SDS011;132;48.770;9.200;2022-10-31T02:11:55;9.50;;;5.37;;
295;SDS011;132;48.770;9.200;2022-10-31T02:14:25;12.10;;;5.20;;
295;SDS011;132;48.770;9.200;2022-10-31T02:16:55;9.97;;;4.97;;
295;SDS011;132;48.770;9.200;2022-10-31T02:19:34;14.37;;;5.53;;
295;SDS011;132;48.770;9.200;2022-10-31T02:22:24;9.47;;;5.13;;
295;SDS011;132;48.770;9.200;2022-10-31T02:27:42;14.20;;;5.40;;
295;SDS011;132;48.770;9.200;2022-10-31T02:30:52;13.73;;;5.00;;
295;SDS011;132;48.770;9.200;2022-10-31T02:33:43;11.33;;;5.60;;
295;SDS011;132;48.770;9.200;2022-10-31T02:36:28;16.10;;;6.23;;
295;SDS011;132;48.770;9.200;2022-10-31T02:44:45;12.00;;;5.43;;
295;SDS011;132;48.770;9.200;2022-10-31T02:47:36;11.20;;;5.30;;
295;SDS011;132;48.770;9.200;2022-10-31T02:53:02;14.83;;;5.53;;
295;SDS011;132;48.770;9.200;2022-10-31T03:00:36;12.23;;;5.30;;
295;SDS011;132;48.770;9.200;2022-10-31T03:03:14;11.90;;;5.10;;
295;SDS011;132;48.770;9.200;2022-10-31T03:11:57;8.80;;;5.27;;
295;SDS011;132;48.770;9.200;2022-10-31T03:14:33;10.60;;;5.30;;
295;SDS011;132;48.770;9.200;2022-10-31T03:17:12;13.93;;;6.07;;
295;SDS011;132;48.770;9.200;2022-10-31T03:19:45;15.10;;;5.70;;
295;SDS011;132;48.770;9.200;2022-10-31T03:22:16;11.80;;;5.90;;
295;SDS011;132;48.770;9.200;2022-10-31T03:24:45;10.50;;;5.73;;
295;SDS011;132;48.770;9.200;2022-10-31T03:27:14;14.53;;;6.47;;
295;SDS011;132;48.770;9.200;2022-10-31T03:29:44;11.00;;;5.97;;
295;SDS011;132;48.770;9.200;2022-10-31T03:32:12;12.13;;;5.70;;
295;SDS011;132;48.770;9.200;2022-10-31T03:34:50;9.70;;;5.43;;
295;SDS011;132;48.770;9.200;2022-10-31T03:37:20;11.70;;;5.43;;
295;SDS011;132;48.770;9.200;2022-10-31T03:39:48;10.10;;;5.13;;
295;SDS011;132;48.770;9.200;2022-10-31T03:42:16;14.40;;;6.07;;
295;SDS011;132;48.770;9.200;2022-10-31T03:44:47;12.80;;;5.30;;
295;SDS011;132;48.770;9.200;2022-10-31T03:47:21;12.20;;;6.53;;
295;SDS011;132;48.770;9.200;2022-10-31T03:49:48;12.93;;;5.90;;
295;SDS011;132;48.770;9.200;2022-10-31T03:52:26;13.43;;;6.07;;
295;SDS011;132;48.770;9.200;2022-10-31T03:55:10;16.23;;;6.17;;
295;SDS011;132;48.770;9.200;2022-10-31T03:58:00;8.97;;;5.73;;
295;SDS011;132;48.770;9.200;2022-10-31T04:00:31;10.27;;;5.80;;
295;SDS011;132;48.770;9.200;2022-10-31T04:05:34;10.53;;;5.27;;
295;SDS011;132;48.770;9.200;2022-10-31T04:08:04;9.57;;;5.50;;
295;SDS011;132;48.770;9.200;2022-10-31T04:10:35;14.03;;;5.60;;
295;SDS011;132;48.770;9.200;2022-10-31T04:13:06;12.57;;;5.57;;
295;SDS011;132;48.770;9.200;2022-10-31T04:15:44;14.57;;;5.97;;
295;SDS011;132;48.770;9.200;2022-10-31T04:18:12;17.60;;;5.80;;
295;SDS011;132;48.770;9.200;2022-10-31T04:20:40;9.97;;;5.30;;
295;SDS011;132;48.770;9.200;2022-10-31T04:23:13;11.17;;;5.50;;
295;SDS011;132;48.770;9.200;2022-10-31T04:25:50;13.60;;;5.90;;
295;SDS011;132;48.770;9.200;2022-10-31T04:28:17;9.60;;;5.37;;
295;SDS011;132;48.770;9.200;2022-10-31T04:30:45;14.03;;;5.73;;
295;SDS011;132;48.770;9.200;2022-10-31T04:33:11;12.27;;;5.60;;
295;SDS011;132;48.770;9.200;2022-10-31T04:35:38;12.13;;;5.87;;
295;SDS011;132;48.770;9.200;2022-10-31T04:38:05;9.73;;;5.37;;
295;SDS011;132;48.770;9.200;2022-10-31T04:40:32;13.50;;;5.77;;
295;SDS011;132;48.770;9.200;2022-10-31T04:43:33;15.10;;;5.77;;
295;SDS011;132;48.770;9.200;2022-10-31T04:46:00;13.60;;;6.10;;
295;SDS011;132;48.770;9.200;2022-10-31T04:48:27;13.97;;;5.80;;
295;SDS011;132;48.770;9.200;2022-10-31T04:50:58;13.93;;;6.10;;
295;SDS011;132;48.770;9.200;2022-10-31T04:53:26;15.43;;;5.83;;
295;SDS011;132;48.770;9.200;2022-10-31T04:56:19;10.93;;;6.47;;
295;SDS011;132;48.770;9.200;2022-10-31T04:58:49;14.60;;;6.50;;
295;SDS011;132;48.770;9.200;2022-10-31T05:01:17;11.97;;;6.40;;
295;SDS011;132;48.770;9.200;2022-10-31T05:03:44;18.73;;;6.50;;
295;SDS011;132;48.770;9.200;2022-10-31T05:06:11;15.20;;;6.20;;
295;SDS011;132;48.770;9.200;2022-10-31T05:08:40;12.20;;;6.13;;
295;SDS011;132;48.770;9.200;2022-10-31T05:11:08;19.33;;;6.47;;
295;SDS011;132;48.770;9.200;2022-10-31T05:13:35;12.63;;;6.17;;
295;SDS011;132;48.770;9.200;2022-10-31T05:16:11;13.40;;;6.27;;
295;SDS011;132;48.770;9.200;2022-10-31T05:18:55;11.83;;;6.30;;
295;SDS011;132;48.770;9.200;2022-10-31T05:21:40;8.90;;;5.87;;
295;SDS011;132;48.770;9.200;2022-10-31T05:24:07;10.90;;;5.93;;
295;SDS011;132;48.770;9.200;2022-10-31T05:26:35;12.33;;;5.53;;
295;SDS011;132;48.770;9.200;2022-10-31T05:29:01;11.23;;;5.65;;
295;SDS011;132;48.770;9.200;2022-10-31T05:31:28;15.53;;;6.23;;
295;SDS011;132;48.770;9.200;2022-10-31T05:33:55;10.53;;;6.10;;
295;SDS011;132;48.770;9.200;2022-10-31T05:36:39;13.37;;;6.80;;
295;SDS011;132;48.770;9.200;2022-10-31T05:39:16;14.60;;;6.40;;
295;SDS011;132;48.770;9.200;2022-10-31T05:41:47;10.57;;;6.27;;
295;SDS011;132;48.770;9.200;2022-10-31T05:44:20;13.40;;;6.27;;
295;SDS011;132;48.770;9.200;2022-10-31T05:47:06;13.63;;;6.00;;
295;SDS011;132;48.770;9.200;2022-10-31T05:49:35;16.17;;;7.13;;
295;SDS011;132;48.770;9.200;2022-10-31T05:52:07;14.32;;;6.55;;
295;SDS011;132;48.770;9.200;2022-10-31T05:54:48;11.77;;;6.20;;
295;SDS011;132;48.770;9.200;2022-10-31T05:57:14;16.08;;;5.78;;
295;SDS011;132;48.770;9.200;2022-10-31T05:59:41;13.37;;;6.33;;
295;SDS011;132;48.770;9.200;2022-10-31T06:02:08;13.50;;;5.80;;
295;SDS011;132;48.770;9.200;2022-10-31T06:04:54;15.80;;;6.33;;
295;SDS011;132;48.770;9.200;2022-10-31T06:07:22;11.37;;;5.80;;
295;SDS011;132;48.770;9.200;2022-10-31T06:09:49;16.23;;;6.43;;
295;SDS011;132;48.770;9.200;2022-10-31T06:12:15;14.50;;;6.90;;
295;SDS011;132;48.770;9.200;2022-10-31T06:15:10;11.68;;;6.32;;
295;SDS011;132;48.770;9.200;2022-10-31T06:17:37;13.23;;;6.37;;
295;SDS011;132;48.770;9.200;2022-10-31T06:20:35;11.18;;;5.97;;
295;SDS011;132;48.770;9.200;2022-10-31T06:23:03;15.93;;;5.70;;
295;SDS011;132;48.770;9.200;2022-10-31T06:25:31;8.97;;;6.20;;
295;SDS011;132;48.770;9.200;2022-10-31T06:27:59;15.60;;;6.53;;
295;SDS011;132;48.770;9.200;2022-10-31T06:30:35;12.00;;;6.30;;
295;SDS011;132;48.770;9.200;2022-10-31T06:33:03;17.13;;;6.70;;
295;SDS011;132;48.770;9.200;2022-10-31T06:35:30;13.40;;;5.88;;
295;SDS011;132;48.770;9.200;2022-10-31T06:37:58;13.73;;;6.63;;
295;SDS011;132;48.770;9.200;2022-10-31T06:40:38;12.10;;;5.97;;
295;SDS011;132;48.770;9.200;2022-10-31T06:43:15;11.23;;;5.90;;
295;SDS011;132;48.770;9.200;2022-10-31T06:45:42;13.33;;;6.67;;
295;SDS011;132;48.770;9.200;2022-10-31T06:48:20;12.83;;;6.30;;
295;SDS011;132;48.770;9.200;2022-10-31T06:51:05;12.70;;;6.03;;
295;SDS011;132;48.770;9.200;2022-10-31T06:53:31;11.03;;;6.60;;
295;SDS011;132;48.770;9.200;2022-10-31T06:56:00;12.73;;;6.87;;
295;SDS011;132;48.770;9.200;2022-10-31T06:58:26;14.53;;;6.83;;
295;SDS011;132;48.770;9.200;2022-10-31T07:01:00;12.00;;;6.47;;
295;SDS011;132;48.770;9.200;2022-10-31T07:03:27;12.40;;;6.88;;
295;SDS011;132;48.770;9.200;2022-10-31T07:05:55;14.63;;;7.30;;
295;SDS011;132;48.770;9.200;2022-10-31T07:08:22;11.73;;;6.93;;
295;SDS011;132;48.770;9.200;2022-10-31T07:10:51;11.77;;;6.60;;
295;SDS011;132;48.770;9.200;2022-10-31T07:13:19;16.73;;;7.43;;
295;SDS011;132;48.770;9.200;2022-10-31T07:15:54;15.17;;;7.30;;
295;SDS011;132;48.770;9.200;2022-10-31T07:18:24;14.27;;;7.90;;
295;SDS011;132;48.770;9.200;2022-10-31T07:20:52;16.63;;;7.50;;
295;SDS011;132;48.770;9.200;2022-10-31T07:23:20;11.40;;;6.70;;
295;SDS011;132;48.770;9.200;2022-10-31T07:26:03;18.53;;;7.67;;
295;SDS011;132;48.770;9.200;2022-10-31T07:28:38;14.50;;;7.67;;
295;SDS011;132;48.770;9.200;2022-10-31T07:31:05;12.50;;;7.23;;
295;SDS011;132;48.770;9.200;2022-10-31T07:33:32;14.60;;;6.90;;
295;SDS011;132;48.770;9.200;2022-10-31T07:36:16;26.27;;;8.23;;
295;SDS011;132;48.770;9.200;2022-10-31T07:38:45;17.20;;;8.00;;
295;SDS011;132;48.770;9.200;2022-10-31T07:41:11;18.70;;;8.20;;
295;SDS011;132;48.770;9.200;2022-10-31T07:43:42;17.57;;;7.10;;
295;SDS011;132;48.770;9.200;2022-10-31T07:46:17;17.80;;;7.00;;
295;SDS011;132;48.770;9.200;2022-10-31T07:49:02;19.50;;;6.97;;
295;SDS011;132;48.770;9.200;2022-10-31T07:51:47;16.87;;;7.90;;
295;SDS011;132;48.770;9.200;2022-10-31T07:54:13;16.57;;;7.37;;
295;SDS011;132;48.770;9.200;2022-10-31T07:56:40;19.67;;;7.80;;
295;SDS011;132;48.770;9.200;2022-10-31T07:59:07;13.33;;;7.03;;
295;SDS011;132;48.770;9.200;2022-10-31T08:01:34;11.40;;;7.03;;
295;SDS011;132;48.770;9.200;2022-10-31T08:04:19;16.57;;;7.07;;
295;SDS011;132;48.770;9.200;2022-10-31T08:07:03;18.97;;;6.90;;
295;SDS011;132;48.770;9.200;2022-10-31T08:09:34;10.40;;;7.30;;
295;SDS011;132;48.770;9.200;2022-10-31T08:12:06;21.30;;;7.70;;
295;SDS011;132;48.770;9.200;2022-10-31T08:14:34;18.60;;;7.70;;
295;SDS011;132;48.770;9.200;2022-10-31T08:17:01;13.80;;;7.97;;
295;SDS011;132;48.770;9.200;2022-10-31T08:19:36;14.20;;;7.47;;
295;SDS011;132;48.770;9.200;2022-10-31T08:22:02;22.43;;;8.30;;
295;SDS011;132;48.770;9.200;2022-10-31T08:24:29;17.40;;;8.20;;
295;SDS011;132;48.770;9.200;2022-10-31T08:26:57;13.37;;;7.00;;
295;SDS011;132;48.770;9.200;2022-10-31T08:29:23;17.60;;;8.50;;
295;SDS011;132;48.770;9.200;2022-10-31T08:31:50;14.70;;;8.47;;
295;SDS011;132;48.770;9.200;2022-10-31T08:34:37;17.20;;;8.50;;
295;SDS011;132;48.770;9.200;2022-10-31T08:37:32;16.80;;;8.07;;
295;SDS011;132;48.770;9.200;2022-10-31T08:39:59;15.50;;;9.20;;
295;SDS011;132;48.770;9.200;2022-10-31T08:42:26;17.27;;;9.90;;
295;SDS011;132;48.770;9.200;2022-10-31T08:44:52;20.97;;;9.20;;
295;SDS011;132;48.770;9.200;2022-10-31T08:47:21;14.23;;;8.40;;
295;SDS011;132;48.770;9.200;2022-10-31T08:49:47;22.13;;;9.40;;
295;SDS011;132;48.770;9.200;2022-10-31T08:52:14;19.23;;;9.60;;
295;SDS011;132;48.770;9.200;2022-10-31T08:54:43;13.50;;;9.10;;
295;SDS011;132;48.770;9.200;2022-10-31T08:57:27;14.80;;;8.13;;
295;SDS011;132;48.770;9.200;2022-10-31T08:59:54;14.33;;;9.27;;
295;SDS011;132;48.770;9.200;2022-10-31T09:02:25;17.53;;;9.10;;
295;SDS011;132;48.770;9.200;2022-10-31T09:04:56;17.27;;;9.00;;
295;SDS011;132;48.770;9.200;2022-10-31T09:07:23;17.33;;;8.70;;
295;SDS011;132;48.770;9.200;2022-10-31T09:09:49;14.40;;;8.03;;
295;SDS011;132;48.770;9.200;2022-10-31T09:12:18;15.60;;;8.77;;
295;SDS011;132;48.770;9.200;2022-10-31T09:15:07;17.17;;;9.30;;
295;SDS011;132;48.770;9.200;2022-10-31T09:17:46;15.03;;;9.13;;
295;SDS011;132;48.770;9.200;2022-10-31T09:20:20;16.40;;;8.07;;
295;SDS011;132;48.770;9.200;2022-10-31T09:22:47;13.97;;;8.00;;
295;SDS011;132;48.770;9.200;2022-10-31T09:25:13;16.00;;;8.77;;
295;SDS011;132;48.770;9.200;2022-10-31T09:27:44;15.30;;;8.43;;
295;SDS011;132;48.770;9.200;2022-10-31T09:30:11;13.37;;;7.67;;
295;SDS011;132;48.770;9.200;2022-10-31T09:32:38;15.03;;;7.90;;
295;SDS011;132;48.770;9.200;2022-10-31T09:35:05;16.73;;;7.03;;
295;SDS011;132;48.770;9.200;2022-10-31T09:37:32;13.63;;;7.50;;
295;SDS011;132;48.770;9.200;2022-10-31T09:39:59;22.57;;;7.57;;
295;SDS011;132;48.770;9.200;2022-10-31T09:45:21;14.43;;;8.03;;
295;SDS011;132;48.770;9.200;2022-10-31T09:48:53;14.77;;;8.07;;
295;SDS011;132;48.770;9.200;2022-10-31T09:51:16;13.60;;;8.13;;
295;SDS011;132;48.770;9.200;2022-10-31T09:54:18;15.20;;;8.00;;
295;SDS011;132;48.770;9.200;2022-10-31T09:57:00;15.60;;;7.70;;
295;SDS011;132;48.770;9.200;2022-10-31T09:59:35;14.37;;;9.00;;
295;SDS011;132;48.770;9.200;2022-10-31T10:02:19;15.40;;;7.57;;
295;SDS011;132;48.770;9.200;2022-10-31T10:04:59;16.93;;;7.83;;
295;SDS011;132;48.770;9.200;2022-10-31T10:13:57;22.07;;;10.70;;
295;SDS011;132;48.770;9.200;2022-10-31T10:19:33;17.20;;;7.37;;
295;SDS011;132;48.770;9.200;2022-10-31T10:22:19;18.37;;;7.60;;
295;SDS011;132;48.770;9.200;2022-10-31T10:25:20;12.87;;;7.70;;
295;SDS011;132;48.770;9.200;2022-10-31T10:28:08;11.90;;;7.50;;
295;SDS011;132;48.770;9.200;2022-10-31T10:33:47;20.60;;;8.50;;
295;SDS011;132;48.770;9.200;2022-10-31T10:36:42;18.23;;;8.07;;
295;SDS011;132;48.770;9.200;2022-10-31T10:42:07;14.67;;;8.40;;
295;SDS011;132;48.770;9.200;2022-10-31T10:44:57;16.23;;;8.30;;
295;SDS011;132;48.770;9.200;2022-10-31T10:47:49;15.10;;;8.37;;
295;SDS011;132;48.770;9.200;2022-10-31T10:50:27;14.07;;;7.77;;
295;SDS011;132;48.770;9.200;2022-10-31T10:58:12;14.70;;;6.97;;
295;SDS011;132;48.770;9.200;2022-10-31T11:00:45;19.90;;;7.60;;
295;SDS011;132;48.770;9.200;2022-10-31T11:03:13;13.77;;;8.07;;
295;SDS011;132;48.770;9.200;2022-10-31T11:05:51;13.37;;;8.50;;
295;SDS011;132;48.770;9.200;2022-10-31T11:08:24;12.83;;;7.40;;
295;SDS011;132;48.770;9.200;2022-10-31T11:10:56;20.37;;;8.67;;
295;SDS011;132;48.770;9.200;2022-10-31T11:13:44;16.70;;;7.87;;
295;SDS011;132;48.770;9.200;2022-10-31T11:16:13;16.83;;;8.03;;
295;SDS011;132;48.770;9.200;2022-10-31T11:18:52;12.63;;;7.20;;
295;SDS011;132;48.770;9.200;2022-10-31T11:21:30;18.53;;;8.70;;
295;SDS011;132;48.770;9.200;2022-10-31T11:24:03;13.20;;;7.97;;
295;SDS011;132;48.770;9.200;2022-10-31T11:26:36;14.20;;;8.47;;
295;SDS011;132;48.770;9.200;2022-10-31T11:29:13;17.83;;;9.07;;
295;SDS011;132;48.770;9.200;2022-10-31T11:31:41;18.50;;;9.10;;
295;SDS011;132;48.770;9.200;2022-10-31T11:37:14;15.00;;;7.53;;
295;SDS011;132;48.770;9.200;2022-10-31T11:39:48;21.20;;;8.00;;
295;SDS011;132;48.770;9.200;2022-10-31T11:42:22;17.70;;;8.73;;
295;SDS011;132;48.770;9.200;2022-10-31T11:44:53;17.90;;;7.93;;
295;SDS011;132;48.770;9.200;2022-10-31T11:47:30;16.60;;;7.30;;
295;SDS011;132;48.770;9.200;2022-10-31T11:50:00;16.00;;;7.53;;
295;SDS011;132;48.770;9.200;2022-10-31T11:52:34;23.47;;;8.07;;
295;SDS011;132;48.770;9.200;2022-10-31T11:55:48;16.17;;;7.30;;
295;SDS011;132;48.770;9.200;2022-10-31T11:58:19;16.50;;;7.90;;
295;SDS011;132;48.770;9.200;2022-10-31T12:00:52;14.33;;;7.77;;
295;SDS011;132;48.770;9.200;2022-10-31T12:08:58;15.43;;;8.17;;
295;SDS011;132;48.770;9.200;2022-10-31T12:14:20;15.93;;;7.87;;
295;SDS011;132;48.770;9.200;2022-10-31T12:42:02;14.00;;;8.00;;
295;SDS011;132;48.770;9.200;2022-10-31T12:47:27;18.60;;;8.20;;
295;SDS011;132;48.770;9.200;2022-10-31T12:50:11;16.97;;;8.40;;
295;SDS011;132;48.770;9.200;2022-10-31T12:52:51;17.43;;;7.87;;
295;SDS011;132;48.770;9.200;2022-10-31T13:01:06;12.70;;;7.90;;
295;SDS011;132;48.770;9.200;2022-10-31T13:06:27;20.03;;;7.83;;
295;SDS011;132;48.770;9.200;2022-10-31T13:09:01;13.17;;;7.07;;
295;SDS011;132;48.770;9.200;2022-10-31T13:11:34;14.20;;;7.20;;
295;SDS011;132;48.770;9.200;2022-10-31T13:14:23;14.27;;;7.10;;
295;SDS011;132;48.770;9.200;2022-10-31T13:22:44;22.13;;;8.40;;
295;SDS011;132;48.770;9.200;2022-10-31T13:27:44;14.13;;;8.40;;
295;SDS011;132;48.770;9.200;2022-10-31T13:30:19;16.93;;;7.53;;
295;SDS011;132;48.770;9.200;2022-10-31T13:36:21;12.57;;;8.07;;
295;SDS011;132;48.770;9.200;2022-10-31T13:38:34;14.90;;;7.67;;
295;SDS011;132;48.770;9.200;2022-10-31T13:41:16;20.57;;;7.70;;
295;SDS011;132;48.770;9.200;2022-10-31T13:46:40;20.03;;;8.70;;
295;SDS011;132;48.770;9.200;2022-10-31T13:57:30;17.80;;;7.70;;
295;SDS011;132;48.770;9.200;2022-10-31T13:59:58;15.57;;;7.87;;
295;SDS011;132;48.770;9.200;2022-10-31T14:02:43;37.37;;;8.23;;
295;SDS011;132;48.770;9.200;2022-10-31T14:08:01;22.87;;;9.40;;
295;SDS011;132;48.770;9.200;2022-10-31T14:10:33;14.17;;;8.10;;
295;SDS011;132;48.770;9.200;2022-10-31T14:13:04;18.30;;;8.87;;
295;SDS011;132;48.770;9.200;2022-10-31T14:15:51;14.00;;;7.60;;
295;SDS011;132;48.770;9.200;2022-10-31T14:18:24;14.30;;;8.17;;
295;SDS011;132;48.770;9.200;2022-10-31T14:20:55;16.30;;;7.70;;
295;SDS011;132;48.770;9.200;2022-10-31T14:26:05;14.23;;;7.87;;
295;SDS011;132;48.770;9.200;2022-10-31T14:28:44;15.40;;;8.00;;
295;SDS011;132;48.770;9.200;2022-10-31T14:34:01;23.60;;;8.20;;
295;SDS011;132;48.770;9.200;2022-10-31T14:39:21;12.80;;;8.00;;
295;SDS011;132;48.770;9.200;2022-10-31T14:41:59;16.40;;;7.40;;
295;SDS011;132;48.770;9.200;2022-10-31T14:44:59;17.43;;;7.63;;
295;SDS011;132;48.770;9.200;2022-10-31T14:50:41;17.47;;;8.33;;
295;SDS011;132;48.770;9.200;2022-10-31T14:53:14;14.77;;;7.90;;
295;SDS011;132;48.770;9.200;2022-10-31T14:55:52;18.73;;;8.10;;
295;SDS011;132;48.770;9.200;2022-10-31T14:59:04;14.63;;;7.70;;
295;SDS011;132;48.770;9.200;2022-10-31T15:03:47;13.67;;;7.60;;
295;SDS011;132;48.770;9.200;2022-10-31T15:06:14;15.23;;;7.90;;
295;SDS011;132;48.770;9.200;2022-10-31T15:08:45;14.63;;;7.87;;
295;SDS011;132;48.770;9.200;2022-10-31T15:11:17;20.80;;;7.77;;
295;SDS011;132;48.770;9.200;2022-10-31T15:13:46;13.20;;;7.70;;
295;SDS011;132;48.770;9.200;2022-10-31T15:16:25;14.37;;;7.73;;
295;SDS011;132;48.770;9.200;2022-10-31T15:18:58;14.83;;;7.70;;
295;SDS011;132;48.770;9.200;2022-10-31T15:21:28;20.87;;;9.00;;
295;SDS011;132;48.770;9.200;2022-10-31T15:23:56;18.17;;;9.73;;
295;SDS011;132;48.770;9.200;2022-10-31T15:26:40;22.57;;;11.60;;
295;SDS011;132;48.770;9.200;2022-10-31T15:29:16;22.37;;;10.97;;
295;SDS011;132;48.770;9.200;2022-10-31T15:31:58;17.87;;;9.90;;
295;SDS011;132;48.770;9.200;2022-10-31T15:34:29;22.63;;;9.00;;
295;SDS011;132;48.770;9.200;2022-10-31T15:37:12;17.83;;;8.73;;
295;SDS011;132;48.770;9.200;2022-10-31T15:39:40;12.93;;;8.20;;
295;SDS011;132;48.770;9.200;2022-10-31T15:42:16;17.40;;;7.90;;
295;SDS011;132;48.770;9.200;2022-10-31T15:44:45;20.37;;;8.57;;
295;SDS011;132;48.770;9.200;2022-10-31T15:47:16;16.23;;;7.80;;
295;SDS011;132;48.770;9.200;2022-10-31T15:49:51;16.33;;;7.97;;
295;SDS011;132;48.770;9.200;2022-10-31T15:57:45;21.63;;;8.17;;
295;SDS011;132;48.770;9.200;2022-10-31T16:00:21;13.03;;;7.27;;
295;SDS011;132;48.770;9.200;2022-10-31T16:05:54;17.00;;;8.30;;
295;SDS011;132;48.770;9.200;2022-10-31T16:11:01;13.23;;;6.97;;
295;SDS011;132;48.770;9.200;2022-10-31T16:13:41;15.80;;;7.50;;
295;SDS011;132;48.770;9.200;2022-10-31T16:16:18;24.97;;;8.40;;
295;SDS011;132;48.770;9.200;2022-10-31T16:18:48;20.83;;;8.40;;
295;SDS011;132;48.770;9.200;2022-10-31T16:21:22;17.00;;;8.60;;
295;SDS011;132;48.770;9.200;2022-10-31T16:23:57;19.30;;;8.70;;
295;SDS011;132;48.770;9.200;2022-10-31T16:26:26;18.23;;;8.03;;
295;SDS011;132;48.770;9.200;2022-10-31T16:28:54;18.00;;;8.90;;
295;SDS011;132;48.770;9.200;2022-10-31T16:31:27;17.13;;;8.50;;
295;SDS011;132;48.770;9.200;2022-10-31T16:34:09;22.13;;;9.07;;
295;SDS011;132;48.770;9.200;2022-10-31T16:36:41;21.37;;;9.60;;
295;SDS011;132;48.770;9.200;2022-10-31T16:39:08;21.43;;;9.20;;
295;SDS011;132;48.770;9.200;2022-10-31T16:41:35;20.37;;;8.90;;
295;SDS011;132;48.770;9.200;2022-10-31T16:44:06;24.40;;;9.97;;
295;SDS011;132;48.770;9.200;2022-10-31T16:46:46;22.97;;;10.13;;
295;SDS011;132;48.770;9.200;2022-10-31T16:49:13;23.50;;;9.93;;
295;SDS011;132;48.770;9.200;2022-10-31T16:51:41;19.50;;;10.10;;
295;SDS011;132;48.770;9.200;2022-10-31T16:54:08;23.70;;;10.70;;
295;SDS011;132;48.770;9.200;2022-10-31T16:56:36;22.97;;;10.20;;
295;SDS011;132;48.770;9.200;2022-10-31T16:59:04;29.83;;;10.30;;
295;SDS011;132;48.770;9.200;2022-10-31T17:01:36;19.83;;;9.80;;
295;SDS011;132;48.770;9.200;2022-10-31T17:04:05;27.87;;;11.07;;
295;SDS011;132;48.770;9.200;2022-10-31T17:06:32;20.63;;;10.40;;
295;SDS011;132;48.770;9.200;2022-10-31T17:08:58;23.40;;;11.30;;
295;SDS011;132;48.770;9.200;2022-10-31T17:11:24;23.70;;;12.00;;
295;SDS011;132;48.770;9.200;2022-10-31T17:13:52;22.00;;;10.80;;
295;SDS011;132;48.770;9.200;2022-10-31T17:16:20;22.50;;;11.60;;
295;SDS011;132;48.770;9.200;2022-10-31T17:18:46;27.77;;;12.50;;
295;SDS011;132;48.770;9.200;2022-10-31T17:21:15;21.33;;;11.70;;
295;SDS011;132;48.770;9.200;2022-10-31T17:23:48;26.37;;;11.87;;
295;SDS011;132;48.770;9.200;2022-10-31T17:26:15;25.87;;;11.50;;
295;SDS011;132;48.770;9.200;2022-10-31T17:28:42;23.50;;;11.07;;
295;SDS011;132;48.770;9.200;2022-10-31T17:31:10;20.03;;;10.47;;
295;SDS011;132;48.770;9.200;2022-10-31T17:33:46;20.13;;;9.50;;
295;SDS011;132;48.770;9.200;2022-10-31T17:36:13;26.30;;;12.00;;
295;SDS011;132;48.770;9.200;2022-10-31T17:38:39;25.93;;;12.60;;
295;SDS011;132;48.770;9.200;2022-10-31T17:41:06;24.10;;;12.50;;
295;SDS011;132;48.770;9.200;2022-10-31T17:43:33;28.43;;;12.50;;
295;SDS011;132;48.770;9.200;2022-10-31T17:46:00;24.77;;;11.23;;
295;SDS011;132;48.770;9.200;2022-10-31T17:48:27;25.27;;;11.77;;
295;SDS011;132;48.770;9.200;2022-10-31T17:50:54;26.57;;;10.37;;
295;SDS011;132;48.770;9.200;2022-10-31T17:53:24;18.73;;;10.10;;
295;SDS011;132;48.770;9.200;2022-10-31T17:55:50;21.63;;;10.97;;
295;SDS011;132;48.770;9.200;2022-10-31T17:58:16;20.53;;;10.20;;
295;SDS011;132;48.770;9.200;2022-10-31T18:00:43;26.37;;;12.33;;
295;SDS011;132;48.770;9.200;2022-10-31T18:03:09;25.80;;;12.60;;
295;SDS011;132;48.770;9.200;2022-10-31T18:05:36;28.13;;;13.17;;
295;SDS011;132;48.770;9.200;2022-10-31T18:08:02;39.47;;;15.07;;
295;SDS011;132;48.770;9.200;2022-10-31T18:10:30;25.90;;;13.47;;
295;SDS011;132;48.770;9.200;2022-10-31T18:12:57;30.60;;;15.10;;
295;SDS011;132;48.770;9.200;2022-10-31T18:15:23;29.70;;;14.40;;
295;SDS011;132;48.770;9.200;2022-10-31T18:17:50;28.20;;;12.60;;
295;SDS011;132;48.770;9.200;2022-10-31T18:20:16;23.93;;;11.43;;
295;SDS011;132;48.770;9.200;2022-10-31T18:22:42;23.67;;;11.53;;
295;SDS011;132;48.770;9.200;2022-10-31T18:25:09;29.17;;;11.50;;
295;SDS011;132;48.770;9.200;2022-10-31T18:27:35;22.60;;;11.60;;
295;SDS011;132;48.770;9.200;2022-10-31T18:30:02;20.53;;;10.73;;
295;SDS011;132;48.770;9.200;2022-10-31T18:32:29;25.97;;;11.87;;
295;SDS011;132;48.770;9.200;2022-10-31T18:34:55;26.60;;;10.43;;
295;SDS011;132;48.770;9.200;2022-10-31T18:37:21;21.23;;;10.63;;